Fulda — V2GL3 — position and weather

sailwx.info

Track history (hours):
 
Tides and Currents Weather Stations Pressure Air Temp Water Temp Dewpoint Dewpoint Depression Visibility Wind Speed Wind Dir Waves Ship Positions

Fulda

Last reported at 2017-Nov-18 05:59 UTC. Time now 2017-Nov-20 17:34 UTC.
Position N 40°46' E 029°26'.

Length 100 m; draft 4.8 m.

Type: Ship. MMSI: 304010995.

Date/timePositionNaut miles runAvg speedWind from/ knotsBaromVisibWave heightAir tempDewpointWater temp
2017-Nov-18 05:59N 40°46' E 029°26'0 0.0
2017-Nov-18 04:41N 40°46' E 029°26'0 0.0
2017-Nov-18 03:24N 40°46' E 029°26'1 3.1
2017-Nov-18 02:59N 40°45' E 029°26'510.0
2017-Nov-18 02:30N 40°43' E 029°20'4 8.6
2017-Nov-18 02:00N 40°43' E 029°14'4 8.6
2017-Nov-18 01:30N 40°42' E 029°09'4 8.7
2017-Nov-18 01:00N 40°41' E 029°03'4 7.9
2017-Nov-18 00:30N 40°40' E 028°58'14 4.8
2017-Nov-17 21:29N 40°26' E 028°60'4 7.5
2017-Nov-17 20:57N 40°25' E 029°05'  
Track history (hours):
 
Tides and Currents Weather Stations Pressure Air Temp Water Temp Dewpoint Dewpoint Depression Visibility Wind Speed Wind Dir Waves Ship Positions

Fulda

Last reported at 2017-Nov-18 05:59 UTC. Time now 2017-Nov-20 17:34 UTC.
Position N 40°46' E 029°26'.

Length 100 m; draft 4.8 m.

Type: Ship. MMSI: 304010995.

Date/timePositionNaut miles runAvg speedWind from/ knotsBaromVisibWave heightAir tempDewpointWater temp
2017-Nov-18 05:59N 40°46' E 029°26'0 0.0
2017-Nov-18 04:41N 40°46' E 029°26'0 0.0
2017-Nov-18 03:24N 40°46' E 029°26'1 3.1
2017-Nov-18 02:59N 40°45' E 029°26'510.0
2017-Nov-18 02:30N 40°43' E 029°20'4 8.6
2017-Nov-18 02:00N 40°43' E 029°14'4 8.6
2017-Nov-18 01:30N 40°42' E 029°09'4 8.7
2017-Nov-18 01:00N 40°41' E 029°03'4 7.9
2017-Nov-18 00:30N 40°40' E 028°58'14 4.8
2017-Nov-17 21:29N 40°26' E 028°60'4 7.5
2017-Nov-17 20:57N 40°25' E 029°05'  

Dump ship's entire track history